Time;durP1;ratioP1;P1;durP2;ratioP2;P2;SDS_P1;SDS_P2;PMS_P1;PMS_P2;Temp;Humidity;BMP_temperature;BMP_pressure;BME280_temperature;BME280_humidity;BME280_pressure;Samples;Min_cycle;Max_cycle;Signal;HPM_P1;HPM_P2
2023/07/27 00:00:29;;;;;;;9.93;9.23;;;;;;;-141.22;100.00;77620.84;5054235;28;20435;-43
2023/07/27 00:02:56;;;;;;;9.47;8.93;;;;;;;-141.22;100.00;77620.84;5053983;28;20471;-44
2023/07/27 00:05:26;;;;;;;10.10;9.30;;;;;;;14.30;100.00;100816.78;5069009;28;20537;-43
2023/07/27 00:07:53;;;;;;;10.60;9.80;;;;;;;14.30;100.00;100816.78;5074405;28;20528;-43
2023/07/27 00:10:24;;;;;;;10.70;9.90;;;;;;;14.30;100.00;100808.75;5074335;28;20457;-45
2023/07/27 00:12:51;;;;;;;10.23;9.53;;;;;;;14.29;100.00;100812.47;5074071;28;20992;-43
2023/07/27 00:15:19;;;;;;;9.80;9.03;;;;;;;14.29;100.00;100812.47;5073894;28;20481;-44
2023/07/27 00:17:46;;;;;;;10.40;9.80;;;;;;;14.29;100.00;100812.47;5074042;28;20437;-44
2023/07/27 00:20:14;;;;;;;9.50;9.03;;;;;;;14.29;100.00;100812.47;5073704;28;20442;-45
2023/07/27 00:22:43;;;;;;;10.90;9.80;;;;;;;-141.22;100.00;100812.47;5074053;28;20477;-47
2023/07/27 00:25:11;;;;;;;11.33;10.53;;;;;;;14.29;100.00;100812.47;5073408;28;20582;-43
2023/07/27 00:27:39;;;;;;;10.30;9.50;;;;;;;14.31;100.00;100793.44;5073941;28;20466;-42
2023/07/27 00:30:08;;;;;;;11.63;10.83;;;;;;;14.31;100.00;100790.75;5074049;28;20462;-45
2023/07/27 00:32:35;;;;;;;12.63;11.73;;;;;;;14.29;100.00;100800.91;5073486;28;20427;-43
2023/07/27 00:35:04;;;;;;;12.57;11.70;;;;;;;14.30;100.00;100805.25;5073530;28;20458;-44
2023/07/27 00:37:31;;;;;;;11.60;10.90;;;;;;;14.30;100.00;100805.25;5073894;28;20503;-47
2023/07/27 00:40:01;;;;;;;12.20;11.17;;;;;;;-141.22;100.00;77588.03;5073709;28;20944;-47
2023/07/27 00:42:29;;;;;;;11.10;10.40;;;;;;;14.30;100.00;100805.25;5073432;28;20554;-45
2023/07/27 00:44:56;;;;;;;11.90;11.13;;;;;;;-141.22;100.00;100805.25;5073053;28;20466;-46
2023/07/27 00:47:24;;;;;;;12.53;11.73;;;;;;;-141.22;100.00;77588.03;5073344;28;20445;-42
2023/07/27 00:49:52;;;;;;;12.07;10.80;;;;;;;14.33;100.00;100799.47;5074031;28;20430;-43
2023/07/27 00:52:20;;;;;;;16.30;11.77;;;;;;;14.32;100.00;100806.69;5073812;28;20884;-42
2023/07/27 00:54:48;;;;;;;13.40;12.40;;;;;;;14.27;100.00;100790.41;5073346;28;20511;-42
2023/07/27 00:57:17;;;;;;;11.63;10.93;;;;;;;14.26;100.00;100799.47;5073743;28;20434;-45
2023/07/27 00:59:45;;;;;;;11.77;11.00;;;;;;;14.25;100.00;100794.31;5073437;28;20804;-42
2023/07/27 01:02:13;;;;;;;11.83;10.90;;;;;;;14.22;100.00;100784.84;5073480;28;20557;-42
2023/07/27 01:04:41;;;;;;;12.03;11.13;;;;;;;14.20;100.00;100796.84;5070116;28;20987;-44
2023/07/27 01:07:09;;;;;;;11.07;10.27;;;;;;;14.20;100.00;100791.47;5073513;28;20488;-42
2023/07/27 01:09:37;;;;;;;12.30;11.50;;;;;;;14.18;100.00;100788.22;5073442;28;20462;-41
2023/07/27 01:12:13;;;;;;;12.30;11.40;;;;;;;14.17;100.00;100781.19;5073327;28;20426;-42
2023/07/27 01:14:47;;;;;;;10.80;10.10;;;;;;;14.15;100.00;100778.75;5072956;28;20458;-42
2023/07/27 01:17:20;;;;;;;11.27;10.63;;;;;;;14.13;100.00;100775.44;5073604;28;20476;-44
2023/07/27 01:20:05;;;;;;;10.83;10.27;;;;;;;14.08;100.00;100786.00;5073229;28;20444;-42
2023/07/27 01:22:51;;;;;;;10.53;10.00;;;;;;;14.00;100.00;100775.56;5072867;28;20466;-45
2023/07/27 01:25:37;;;;;;;11.03;10.40;;;;;;;13.93;100.00;100785.50;5072318;28;20453;-44
2023/07/27 01:28:14;;;;;;;11.37;10.37;;;;;;;13.88;100.00;100787.19;5073016;28;20474;-43
2023/07/27 01:30:54;;;;;;;11.30;10.47;;;;;;;13.88;100.00;100787.19;5073007;28;20434;-44
2023/07/27 01:33:29;;;;;;;12.30;11.20;;;;;;;13.88;100.00;100787.19;5072889;28;20482;-42
2023/07/27 01:36:04;;;;;;;12.87;11.63;;;;;;;13.73;100.00;100790.19;5072889;28;20529;-42
2023/07/27 01:38:35;;;;;;;11.87;11.17;;;;;;;13.70;100.00;100786.09;5072820;28;20492;-42
2023/07/27 01:41:05;;;;;;;11.50;10.80;;;;;;;13.66;100.00;100787.53;5072869;28;20805;-42
2023/07/27 01:43:34;;;;;;;11.50;10.40;;;;;;;13.66;100.00;100790.22;5071678;28;20524;-42
2023/07/27 01:46:04;;;;;;;11.90;11.20;;;;;;;13.69;100.00;100797.00;5072589;28;20939;-43
2023/07/27 01:48:34;;;;;;;11.10;10.50;;;;;;;13.69;100.00;100797.00;5072615;28;20444;-43
2023/07/27 01:51:03;;;;;;;11.20;10.50;;;;;;;13.74;100.00;100781.09;5072508;28;20460;-43
2023/07/27 01:53:31;;;;;;;11.27;10.67;;;;;;;13.74;100.00;100770.38;5071959;28;20824;-46
2023/07/27 01:56:00;;;;;;;10.60;10.00;;;;;;;13.75;100.00;100778.22;5072432;28;20913;-42
2023/07/27 01:58:29;;;;;;;11.27;10.67;;;;;;;13.75;100.00;100778.22;5072603;28;20431;-45
2023/07/27 02:00:58;;;;;;;12.53;11.83;;;;;;;13.75;100.00;100778.22;5072685;28;20441;-44
2023/07/27 02:03:28;;;;;;;12.03;11.13;;;;;;;13.79;100.00;100775.91;5072038;28;20478;-42
2023/07/27 02:05:56;;;;;;;11.60;10.63;;;;;;;13.79;100.00;100775.91;5072106;28;20446;-43
2023/07/27 02:08:24;;;;;;;12.03;11.20;;;;;;;13.76;100.00;100771.00;5072257;28;20431;-43
2023/07/27 02:10:56;;;;;;;12.40;11.43;;;;;;;13.76;100.00;100771.00;5072136;28;20529;-42
2023/07/27 02:13:31;;;;;;;13.37;12.10;;;;;;;13.76;100.00;100771.00;5071850;28;20482;-44
2023/07/27 02:16:05;;;;;;;12.60;11.60;;;;;;;13.76;100.00;100771.00;5071928;28;20444;-43
2023/07/27 02:18:37;;;;;;;12.33;11.33;;;;;;;13.80;100.00;100769.50;5072328;28;20466;-42
2023/07/27 02:21:06;;;;;;;12.10;11.27;;;;;;;13.86;100.00;100763.28;5072189;28;20471;-47
2023/07/27 02:23:36;;;;;;;12.43;11.13;;;;;;;13.90;100.00;100769.03;5071386;28;20983;-42
2023/07/27 02:26:03;;;;;;;11.60;11.00;;;;;;;13.93;100.00;100768.59;5072463;28;20868;-43
2023/07/27 02:28:31;;;;;;;12.17;11.30;;;;;;;13.96;100.00;100773.53;5072210;28;20450;-43
2023/07/27 02:30:59;;;;;;;12.23;11.53;;;;;;;14.00;100.00;100766.69;5072310;28;20521;-43
2023/07/27 02:33:26;;;;;;;12.00;11.30;;;;;;;14.02;100.00;100757.38;5071911;28;20450;-44
2023/07/27 02:35:56;;;;;;;12.30;11.40;;;;;;;14.04;100.00;100749.09;5071911;28;20875;-42
2023/07/27 02:38:24;;;;;;;11.43;10.67;;;;;;;14.08;100.00;100753.00;5072120;28;20847;-42
2023/07/27 02:40:51;;;;;;;14.00;11.50;;;;;;;14.09;100.00;100746.63;5072065;28;20517;-42
2023/07/27 02:43:19;;;;;;;11.83;11.00;;;;;;;14.13;100.00;100750.47;5071651;28;20502;-44
2023/07/27 02:45:47;;;;;;;12.50;11.60;;;;;;;14.15;100.00;100756.47;5075316;28;20473;-43
2023/07/27 02:48:14;;;;;;;12.63;11.73;;;;;;;14.16;100.00;100758.09;5081092;28;20430;-47
2023/07/27 02:50:49;;;;;;;12.70;11.70;;;;;;;14.17;100.00;100759.75;5080842;28;20440;-41
2023/07/27 02:53:19;;;;;;;13.90;12.77;;;;;;;14.17;100.00;100770.47;5080388;28;20450;-45
2023/07/27 02:55:58;;;;;;;14.40;13.00;;;;;;;14.17;100.00;100770.47;5080122;28;20469;-43
2023/07/27 02:58:26;;;;;;;13.67;12.47;;;;;;;14.17;100.00;100770.47;5079583;28;20472;-41
2023/07/27 03:00:55;;;;;;;13.60;11.70;;;;;;;14.17;100.00;100770.47;5080660;28;20468;-47
2023/07/27 03:03:22;;;;;;;12.20;11.50;;;;;;;14.17;100.00;100770.47;5080318;28;20848;-44
2023/07/27 03:05:57;;;;;;;12.50;11.80;;;;;;;14.17;100.00;100770.47;5079690;28;20541;-47
2023/07/27 03:08:26;;;;;;;13.03;11.83;;;;;;;14.08;100.00;100761.06;5059960;28;20430;-43
2023/07/27 03:10:55;;;;;;;13.27;12.57;;;;;;;14.10;100.00;100761.63;5060169;28;20518;-43
2023/07/27 03:13:23;;;;;;;15.00;13.87;;;;;;;14.10;100.00;100761.63;5059711;28;20458;-42
2023/07/27 03:15:50;;;;;;;13.17;12.17;;;;;;;14.16;100.00;100742.00;5059709;28;20498;-43
2023/07/27 03:18:18;;;;;;;12.90;12.20;;;;;;;14.16;100.00;100742.00;5060414;28;20462;-42
2023/07/27 03:20:46;;;;;;;13.10;12.40;;;;;;;14.16;100.00;100742.00;5060960;28;20493;-42
2023/07/27 03:23:14;;;;;;;13.30;12.50;;;;;;;-141.22;100.00;77557.28;5062633;28;20475;-45
2023/07/27 03:25:43;;;;;;;13.13;12.43;;;;;;;14.16;100.00;100742.00;5062766;28;20455;-42
2023/07/27 03:28:10;;;;;;;13.00;12.30;;;;;;;;;;5063385;28;20427;-42
2023/07/27 03:30:39;;;;;;;13.77;12.70;;;;;;;-141.22;100.00;77557.28;5063396;28;20459;-43
2023/07/27 03:33:07;;;;;;;15.60;12.97;;;;;;;14.16;100.00;100742.00;5063157;28;20427;-45
2023/07/27 03:35:36;;;;;;;13.43;12.43;;;;;;;13.95;100.00;100761.97;5063089;28;20520;-44
2023/07/27 03:38:04;;;;;;;13.47;12.73;;;;;;;13.93;100.00;100755.19;5063226;28;20438;-42
2023/07/27 03:40:31;;;;;;;12.73;12.13;;;;;;;;;;5063942;28;20841;-41
2023/07/27 03:43:00;;;;;;;13.17;12.07;;;;;;;-141.22;100.00;65034.22;5063285;28;20455;-42
2023/07/27 03:45:28;;;;;;;12.23;11.63;;;;;;;13.93;100.00;100755.19;5062615;28;20459;-42
2023/07/27 03:47:56;;;;;;;13.63;12.87;;;;;;;13.93;100.00;100755.19;5063240;28;20436;-43
2023/07/27 03:50:23;;;;;;;13.73;12.87;;;;;;;13.93;100.00;100755.19;5063781;28;20438;-43
2023/07/27 03:52:51;;;;;;;12.67;11.97;;;;;;;13.93;100.00;100755.19;5062778;28;20435;-43
2023/07/27 03:55:19;;;;;;;12.20;11.60;;;;;;;13.93;100.00;100755.19;5062952;28;20532;-42
2023/07/27 03:57:48;;;;;;;13.00;12.20;;;;;;;14.10;100.00;100746.38;5063333;28;20467;-42
2023/07/27 04:00:17;;;;;;;13.40;12.60;;;;;;;14.10;100.00;100746.38;5062999;28;20435;-42
2023/07/27 04:02:44;;;;;;;12.53;11.73;;;;;;;14.17;100.00;100740.97;5063327;28;20474;-43
2023/07/27 04:05:12;;;;;;;13.50;12.67;;;;;;;14.20;100.00;100737.84;5062197;28;20550;-44
2023/07/27 04:07:40;;;;;;;14.20;13.20;;;;;;;14.24;100.00;100739.06;5063345;28;20457;-42
2023/07/27 04:10:08;;;;;;;12.20;11.40;;;;;;;14.27;100.00;100728.72;5063098;28;20451;-46
2023/07/27 04:12:36;;;;;;;13.80;13.00;;;;;;;-141.22;100.00;77532.66;5062652;28;20435;-43
2023/07/27 04:15:04;;;;;;;13.50;12.60;;;;;;;14.30;100.00;100728.28;5062967;28;20482;-42
2023/07/27 04:17:33;;;;;;;13.53;12.20;;;;;;;14.30;100.00;100728.28;5063292;28;20530;-42
2023/07/27 04:20:01;;;;;;;16.23;14.90;;;;;;;14.30;100.00;100717.53;5061870;28;20516;-43
2023/07/27 04:22:29;;;;;;;16.60;15.17;;;;;;;14.34;100.00;100712.56;5062973;28;20423;-48
2023/07/27 04:24:58;;;;;;;17.40;16.23;;;;;;;14.40;100.00;100712.50;5062172;28;20490;-42
2023/07/27 04:27:25;;;;;;;18.60;17.07;;;;;;;14.50;100.00;100713.84;5062870;28;20466;-42
2023/07/27 04:29:53;;;;;;;16.50;15.33;;;;;;;14.50;100.00;100713.84;5062715;28;20450;-45
2023/07/27 04:32:22;;;;;;;20.13;18.53;;;;;;;-141.22;100.00;65034.22;5062321;28;20438;-44
2023/07/27 04:34:51;;;;;;;18.17;16.60;;;;;;;-141.22;100.00;65034.22;5062067;28;20467;-41
2023/07/27 04:37:20;;;;;;;17.57;16.17;;;;;;;-141.22;100.00;65034.22;5062336;28;20435;-43
2023/07/27 04:39:48;;;;;;;16.90;15.80;;;;;;;-141.22;100.00;65034.22;5062309;28;20491;-42
2023/07/27 04:42:16;;;;;;;19.03;17.50;;;;;;;-141.22;nan;65034.22;5062947;28;20838;-43
2023/07/27 04:44:43;;;;;;;18.40;17.13;;;;;;;-141.22;100.00;65034.22;5061833;28;20538;-44
2023/07/27 04:47:11;;;;;;;18.30;16.73;;;;;;;-141.22;100.00;65034.22;5062666;28;21016;-44
2023/07/27 04:49:39;;;;;;;17.10;15.80;;;;;;;-141.22;100.00;65034.22;5062536;28;20435;-42
2023/07/27 04:52:08;;;;;;;17.20;16.30;;;;;;;-141.22;100.00;65034.22;5061667;28;20476;-42
2023/07/27 04:54:36;;;;;;;18.13;16.73;;;;;;;20.77;100.00;100654.31;5061556;28;20462;-44
2023/07/27 04:57:05;;;;;;;17.87;16.77;;;;;;;21.49;100.00;100649.63;5062134;28;20550;-43
2023/07/27 04:59:32;;;;;;;17.47;16.50;;;;;;;22.09;100.00;100645.28;5061493;28;20427;-42
2023/07/27 05:02:00;;;;;;;16.50;15.57;;;;;;;22.57;100.00;100638.34;5061811;28;20513;-43
2023/07/27 05:04:28;;;;;;;16.57;15.53;;;;;;;22.99;100.00;100633.28;5068495;28;20477;-44
2023/07/27 05:06:55;;;;;;;15.23;14.30;;;;;;;23.34;100.00;100629.50;5081929;28;20842;-45
2023/07/27 05:09:24;;;;;;;13.97;13.17;;;;;;;23.82;100.00;100635.94;5081788;28;20509;-43
2023/07/27 05:11:52;;;;;;;16.27;15.17;;;;;;;24.25;100.00;100631.44;5081167;28;20483;-45
2023/07/27 05:14:20;;;;;;;12.77;12.00;;;;;;;24.28;100.00;100632.78;5081324;28;20541;-48
2023/07/27 05:16:48;;;;;;;12.70;11.80;;;;;;;24.59;95.30;100632.09;5080844;28;20847;-44
2023/07/27 05:19:16;;;;;;;12.07;11.37;;;;;;;24.73;100.00;100627.56;5081204;28;20445;-42
2023/07/27 05:21:43;;;;;;;10.33;9.73;;;;;;;24.94;100.00;100635.50;5082242;28;20437;-48
2023/07/27 05:24:11;;;;;;;9.87;9.10;;;;;;;25.30;99.11;100631.13;5080769;28;20541;-46
2023/07/27 05:26:40;;;;;;;9.00;8.13;;;;;;;25.63;93.80;100623.81;5081623;28;20461;-43
2023/07/27 05:29:08;;;;;;;8.80;8.20;;;;;;;26.13;94.22;100625.66;5081222;28;20517;-42
2023/07/27 05:31:36;;;;;;;8.97;8.33;;;;;;;26.13;94.22;100625.66;5081293;28;20490;-43
2023/07/27 05:34:03;;;;;;;7.93;7.50;;;;;;;27.08;80.26;100619.31;5081190;28;20515;-43
2023/07/27 05:36:31;;;;;;;8.70;8.07;;;;;;;27.47;79.77;100624.16;5081938;28;20430;-45
2023/07/27 05:38:59;;;;;;;8.70;8.10;;;;;;;27.76;73.93;100624.50;5080722;28;20433;-44
2023/07/27 05:41:27;;;;;;;8.30;7.57;;;;;;;27.89;69.05;100625.56;5080691;28;20773;-43
2023/07/27 05:43:56;;;;;;;7.53;6.93;;;;;;;28.30;70.01;100619.78;5080358;28;20465;-42
2023/07/27 05:46:24;;;;;;;8.47;7.93;;;;;;;28.60;69.99;100624.41;5080850;28;20469;-43
2023/07/27 05:48:52;;;;;;;7.77;7.27;;;;;;;28.92;66.31;100621.25;5081319;28;20487;-43
2023/07/27 05:51:19;;;;;;;7.40;6.80;;;;;;;29.25;61.29;100618.06;5080554;28;20203;-43
2023/07/27 05:53:47;;;;;;;7.40;6.90;;;;;;;29.26;60.54;100619.69;5081118;28;20219;-42
2023/07/27 05:56:15;;;;;;;7.77;7.17;;;;;;;29.41;59.25;100616.44;5081557;28;20278;-43
2023/07/27 05:58:43;;;;;;;6.97;6.57;;;;;;;29.62;54.90;100611.88;5081689;28;20200;-43
2023/07/27 06:01:13;;;;;;;7.80;7.20;;;;;;;29.75;58.53;100615.56;5081006;28;20608;-48
2023/07/27 06:03:40;;;;;;;8.33;7.57;;;;;;;30.09;60.94;100619.03;5079582;28;20215;-44
2023/07/27 06:06:12;;;;;;;7.23;6.73;;;;;;;29.94;55.40;100625.09;5071492;28;20248;-43
2023/07/27 06:08:41;;;;;;;6.73;6.33;;;;;;;30.21;54.94;100615.59;5081310;28;20684;-44
2023/07/27 06:11:09;;;;;;;7.00;6.57;;;;;;;30.47;56.25;100609.97;5081194;28;20611;-45
2023/07/27 06:13:37;;;;;;;6.27;5.77;;;;;;;30.75;55.25;100613.06;5081657;28;20249;-43
2023/07/27 06:16:05;;;;;;;6.47;6.03;;;;;;;30.05;55.60;100614.50;5083053;28;20657;-44
2023/07/27 06:18:34;;;;;;;7.53;6.30;;;;;;;29.07;55.31;100617.22;5081283;28;20223;-44
2023/07/27 06:21:02;;;;;;;6.73;6.13;;;;;;;28.98;55.46;100619.16;5081350;28;20200;-41
2023/07/27 06:23:30;;;;;;;5.53;5.23;;;;;;;29.27;54.28;100613.84;5081287;28;20223;-42
2023/07/27 06:25:57;;;;;;;6.47;5.73;;;;;;;29.62;55.30;100609.13;5081820;28;20222;-39
2023/07/27 06:28:25;;;;;;;6.43;5.93;;;;;;;29.97;51.27;100602.44;5081625;28;20211;-41
2023/07/27 06:30:53;;;;;;;6.33;5.77;;;;;;;30.08;53.31;100600.09;5081383;28;20195;-44
2023/07/27 06:33:21;;;;;;;6.47;6.07;;;;;;;30.28;52.22;100606.84;5081609;28;20254;-40
2023/07/27 06:35:51;;;;;;;6.37;5.87;;;;;;;30.69;53.19;100598.69;5081248;28;20242;-42
2023/07/27 06:38:19;;;;;;;6.13;5.73;;;;;;;31.16;52.81;100602.88;5082941;28;20199;-44
2023/07/27 06:40:46;;;;;;;6.10;5.60;;;;;;;31.29;50.03;100598.22;5081959;28;20263;-41
2023/07/27 06:43:14;;;;;;;5.67;5.37;;;;;;;31.75;51.13;100595.19;5082469;28;20223;-42
2023/07/27 06:45:42;;;;;;;5.80;5.30;;;;;;;31.76;49.88;100584.97;5081360;28;20215;-42
2023/07/27 06:48:09;;;;;;;5.28;4.97;;;;;;;32.04;49.09;100590.66;5081399;28;20211;-40
2023/07/27 06:50:37;;;;;;;6.47;5.97;;;;;;;32.03;42.74;100581.59;5081770;28;20291;-40
2023/07/27 06:53:06;;;;;;;6.07;5.53;;;;;;;32.04;47.69;100593.44;5079761;28;20187;-46
2023/07/27 06:55:34;;;;;;;4.78;4.47;;;;;;;31.94;46.68;100594.63;5081245;28;20275;-43
2023/07/27 06:58:02;;;;;;;5.57;5.05;;;;;;;31.86;42.75;100601.06;5085028;28;20195;-42
2023/07/27 07:00:31;;;;;;;5.75;4.90;;;;;;;31.44;45.72;100599.56;5086450;28;20195;-40
2023/07/27 07:02:59;;;;;;;5.78;5.28;;;;;;;30.83;45.18;100596.47;5085283;28;20231;-41
2023/07/27 07:05:27;;;;;;;6.10;5.70;;;;;;;30.20;46.11;100593.94;5085120;28;20215;-43
2023/07/27 07:07:55;;;;;;;6.20;5.70;;;;;;;30.09;47.13;100591.53;5085716;28;20196;-43
2023/07/27 07:10:24;;;;;;;5.73;5.33;;;;;;;30.62;47.33;100592.88;5086504;28;20203;-45
2023/07/27 07:12:52;;;;;;;10.03;5.57;;;;;;;30.58;46.86;100576.25;5084281;28;20273;-42
2023/07/27 07:15:19;;;;;;;6.33;5.77;;;;;;;30.91;46.30;100587.34;5084266;28;20220;-46
2023/07/27 07:17:47;;;;;;;5.97;5.47;;;;;;;31.08;46.70;100578.97;5084801;28;20200;-43
2023/07/27 07:20:15;;;;;;;6.20;5.77;;;;;;;30.70;45.79;100579.06;5083466;28;20199;-41
2023/07/27 07:22:42;;;;;;;6.23;5.80;;;;;;;30.99;46.37;100578.25;5084635;28;20192;-40
2023/07/27 07:25:10;;;;;;;5.23;4.73;;;;;;;31.27;44.77;100576.50;5083155;28;20231;-42
2023/07/27 07:27:39;;;;;;;6.13;5.60;;;;;;;31.52;45.29;100571.13;5083031;28;20196;-42
2023/07/27 07:30:09;;;;;;;5.53;5.13;;;;;;;30.43;43.77;100562.28;5083310;28;20203;-43
2023/07/27 07:32:36;;;;;;;5.60;5.10;;;;;;;30.18;45.80;100570.31;5083260;28;20226;-40
2023/07/27 07:35:05;;;;;;;5.30;4.83;;;;;;;30.08;46.92;100562.41;5082261;28;20308;-40
2023/07/27 07:37:34;;;;;;;5.13;4.67;;;;;;;29.88;45.00;100568.66;5084880;28;20605;-44
2023/07/27 07:40:02;;;;;;;5.13;4.83;;;;;;;29.52;45.33;100562.75;5083676;28;20196;-45
2023/07/27 07:42:30;;;;;;;5.60;5.10;;;;;;;29.20;47.45;100561.34;5083337;28;20196;-45
2023/07/27 07:44:59;;;;;;;5.10;4.70;;;;;;;28.92;46.61;100560.84;5083250;28;20227;-43
2023/07/27 07:47:27;;;;;;;6.90;5.10;;;;;;;28.77;46.84;100564.09;5084207;28;20211;-42
2023/07/27 07:49:54;;;;;;;5.30;4.90;;;;;;;28.60;48.28;100558.56;5084224;28;20195;-44
2023/07/27 07:52:22;;;;;;;5.30;4.90;;;;;;;28.23;47.80;100550.88;5084108;28;20222;-42
2023/07/27 07:54:50;;;;;;;4.60;4.30;;;;;;;27.88;47.55;100553.47;5082524;28;20478;-42
2023/07/27 07:57:19;;;;;;;4.60;4.20;;;;;;;27.65;47.89;100553.84;5077933;28;20488;-44
2023/07/27 07:59:47;;;;;;;5.00;4.70;;;;;;;26.99;48.23;100546.47;5083065;28;20823;-42
2023/07/27 08:02:16;;;;;;;4.30;4.00;;;;;;;26.50;49.19;100556.28;5083415;28;20505;-42
2023/07/27 08:04:44;;;;;;;4.83;4.47;;;;;;;26.21;48.94;100544.88;5079344;28;20851;-43
2023/07/27 08:07:12;;;;;;;4.60;4.30;;;;;;;26.09;50.00;100547.28;5081629;28;20995;-45
2023/07/27 08:09:41;;;;;;;4.60;4.23;;;;;;;26.25;50.53;100545.91;5082136;28;20426;-43
2023/07/27 08:12:09;;;;;;;4.07;3.63;;;;;;;26.29;51.46;100546.88;5081651;28;20437;-44
2023/07/27 08:14:36;;;;;;;4.70;4.40;;;;;;;26.43;52.85;100544.16;5081620;28;20464;-43
2023/07/27 08:17:04;;;;;;;3.53;3.30;;;;;;;26.51;52.90;100533.31;5082067;28;20555;-43
2023/07/27 08:19:35;;;;;;;4.73;4.40;;;;;;;26.44;52.40;100540.28;5081932;28;20446;-42
2023/07/27 08:22:03;;;;;;;4.30;3.77;;;;;;;26.08;51.99;100538.28;5081594;28;20525;-43
2023/07/27 08:24:31;;;;;;;3.80;3.50;;;;;;;25.97;52.95;100545.06;5081462;28;20453;-46
2023/07/27 08:26:59;;;;;;;4.93;3.83;;;;;;;26.03;52.50;100543.03;5081461;28;21016;-44
2023/07/27 08:29:27;;;;;;;4.90;4.50;;;;;;;26.00;52.11;100539.00;5081393;28;20434;-44
2023/07/27 08:31:55;;;;;;;4.33;4.03;;;;;;;25.81;51.50;100539.06;5082025;28;20429;-44
2023/07/27 08:34:23;;;;;;;4.83;4.30;;;;;;;25.66;52.97;100536.63;5080744;28;20486;-45
2023/07/27 08:36:53;;;;;;;3.77;3.57;;;;;;;25.56;52.06;100533.28;5082637;28;20428;-46
2023/07/27 08:39:20;;;;;;;3.87;3.57;;;;;;;25.43;51.28;100540.31;5081784;28;20430;-42
2023/07/27 08:41:48;;;;;;;5.60;3.80;;;;;;;25.56;53.11;100533.28;5081133;28;20490;-44
2023/07/27 08:44:17;;;;;;;5.03;4.73;;;;;;;25.45;54.41;100526.38;5081357;28;20540;-43
2023/07/27 08:46:47;;;;;;;4.00;3.70;;;;;;;25.44;53.12;100531.00;5082037;28;20481;-43
2023/07/27 08:49:15;;;;;;;4.33;3.90;;;;;;;25.57;53.75;100527.50;5082677;28;20436;-43
2023/07/27 08:51:44;;;;;;;4.07;3.77;;;;;;;25.47;52.88;100524.13;5081802;28;20432;-44
2023/07/27 08:54:14;;;;;;;4.67;4.27;;;;;;;25.77;53.13;100521.69;5081305;28;21224;-43
2023/07/27 08:56:42;;;;;;;4.80;4.50;;;;;;;25.95;52.74;100519.16;5081298;28;20426;-43
2023/07/27 08:59:10;;;;;;;5.50;4.60;;;;;;;25.98;52.70;100524.81;5081575;28;21027;-43
2023/07/27 09:01:38;;;;;;;4.60;4.00;;;;;;;26.19;51.48;100519.78;5081164;28;20469;-43
2023/07/27 09:04:06;;;;;;;5.40;4.00;;;;;;;26.31;52.07;100520.06;5077494;28;20466;-43
2023/07/27 09:06:39;;;;;;;5.07;4.63;;;;;;;26.22;50.04;100517.22;5081716;28;20499;-42
2023/07/27 09:09:17;;;;;;;4.70;4.30;;;;;;;26.10;51.26;100522.41;5081439;28;20436;-48
2023/07/27 09:11:46;;;;;;;5.83;5.33;;;;;;;26.10;52.09;100522.41;5080907;28;20480;-43
2023/07/27 09:14:16;;;;;;;5.00;4.57;;;;;;;26.15;51.01;100518.78;5080907;28;20487;-43
2023/07/27 09:16:44;;;;;;;4.60;4.20;;;;;;;26.27;50.90;100510.84;5080679;28;20422;-45
2023/07/27 09:19:13;;;;;;;5.10;4.70;;;;;;;26.26;52.15;100514.69;5080364;28;20438;-43
2023/07/27 09:21:41;;;;;;;4.33;4.03;;;;;;;26.32;51.32;100513.47;5081156;28;20434;-43
2023/07/27 09:24:11;;;;;;;5.40;4.57;;;;;;;26.28;51.81;100510.53;5080438;28;20457;-42
2023/07/27 09:26:47;;;;;;;5.47;5.00;;;;;;;25.93;53.19;100511.25;5080833;28;20470;-43
2023/07/27 09:29:16;;;;;;;7.40;5.33;;;;;;;25.79;54.06;100511.25;5080964;28;20430;-43
2023/07/27 09:31:45;;;;;;;6.27;5.70;;;;;;;26.19;54.61;100509.66;5080841;28;20487;-42
2023/07/27 09:34:14;;;;;;;7.23;5.70;;;;;;;26.26;54.93;100501.03;5080416;28;20502;-43
2023/07/27 09:36:42;;;;;;;6.60;6.00;;;;;;;25.90;55.46;100509.13;5080395;28;20429;-42
2023/07/27 09:39:09;;;;;;;6.30;5.80;;;;;;;25.95;56.52;100500.03;5080823;28;20430;-46
2023/07/27 09:41:38;;;;;;;6.83;6.20;;;;;;;26.26;56.37;100495.56;5081112;28;20434;-45
2023/07/27 09:44:07;;;;;;;7.33;6.70;;;;;;;26.43;56.14;100494.94;5080393;28;20473;-46
2023/07/27 09:46:34;;;;;;;7.70;7.10;;;;;;;26.52;56.29;100498.56;5080576;28;20490;-43
2023/07/27 09:49:03;;;;;;;6.77;6.20;;;;;;;26.67;56.29;100490.00;5079927;28;20430;-41
2023/07/27 09:51:30;;;;;;;6.60;6.20;;;;;;;26.61;57.06;100500.22;5071536;28;20434;-42
2023/07/27 09:54:00;;;;;;;6.37;5.87;;;;;;;26.53;55.95;100490.03;5076786;28;20501;-45
2023/07/27 09:56:28;;;;;;;6.73;6.13;;;;;;;26.49;56.14;100499.19;5077660;28;20422;-42
2023/07/27 09:58:56;;;;;;;8.47;7.67;;;;;;;26.50;56.18;100492.56;5077678;28;20430;-42
2023/07/27 10:01:25;;;;;;;6.70;6.30;;;;;;;26.15;56.18;100484.06;5074401;28;20528;-44
2023/07/27 10:03:57;;;;;;;8.17;7.43;;;;;;;25.72;55.03;100493.63;5064901;28;20523;-43
2023/07/27 10:06:27;;;;;;;8.00;7.30;;;;;;;25.52;55.50;100488.56;5067089;28;20476;-43
2023/07/27 10:08:56;;;;;;;9.10;7.87;;;;;;;25.39;56.50;100484.66;5070820;28;20470;-44
2023/07/27 10:11:31;;;;;;;8.80;7.33;;;;;;;25.37;58.58;100484.16;5070488;28;20476;-42
2023/07/27 10:14:17;;;;;;;8.37;7.67;;;;;;;25.35;58.94;100471.94;5069468;28;20446;-44
2023/07/27 10:17:00;;;;;;;8.30;7.53;;;;;;;25.48;60.36;100471.13;5069013;28;20488;-42
2023/07/27 10:19:39;;;;;;;9.03;8.13;;;;;;;25.35;57.51;100471.94;5070098;28;20543;-42
2023/07/27 10:22:08;;;;;;;9.43;8.53;;;;;;;25.39;58.48;100473.75;5069112;28;20469;-42
2023/07/27 10:24:48;;;;;;;8.67;7.97;;;;;;;25.33;58.87;100469.50;5069403;28;20476;-45
2023/07/27 10:27:17;;;;;;;8.50;7.70;;;;;;;25.37;60.07;100466.97;5068938;28;20487;-42
2023/07/27 10:29:52;;;;;;;9.33;8.53;;;;;;;25.46;60.19;100465.16;5070022;28;20438;-42
2023/07/27 10:32:23;;;;;;;7.70;7.00;;;;;;;25.50;60.43;100466.22;5068461;28;20478;-42
2023/07/27 10:34:52;;;;;;;9.30;8.60;;;;;;;25.38;61.89;100469.41;5069873;28;20466;-42
2023/07/27 10:37:19;;;;;;;8.90;8.20;;;;;;;25.35;63.22;100452.84;5069451;28;20939;-44
2023/07/27 10:39:48;;;;;;;8.37;7.77;;;;;;;25.35;61.60;100453.66;5069876;28;20440;-43
2023/07/27 10:42:17;;;;;;;8.77;8.07;;;;;;;25.17;60.95;100449.88;5068894;28;20468;-43
2023/07/27 10:44:47;;;;;;;9.23;8.33;;;;;;;25.31;61.15;100449.88;5067771;28;20469;-42
2023/07/27 10:47:17;;;;;;;9.70;8.73;;;;;;;25.23;62.33;100454.13;5067716;28;21085;-42
2023/07/27 10:49:48;;;;;;;8.93;8.07;;;;;;;25.45;64.00;100447.19;5070045;28;20776;-42
2023/07/27 10:52:17;;;;;;;9.07;8.37;;;;;;;25.22;64.97;100447.03;5070144;28;20437;-42
2023/07/27 10:54:47;;;;;;;9.90;8.63;;;;;;;25.28;64.75;100448.56;5069891;28;21083;-43
2023/07/27 10:57:18;;;;;;;7.13;6.63;;;;;;;25.50;66.41;100447.94;5069826;28;20487;-44
2023/07/27 10:59:47;;;;;;;9.67;8.80;;;;;;;25.38;65.59;100453.03;5070482;28;20823;-42
2023/07/27 11:02:17;;;;;;;11.80;8.90;;;;;;;25.56;65.59;100451.38;5071256;28;20521;-42
2023/07/27 11:04:49;;;;;;;9.20;8.50;;;;;;;26.04;64.32;100447.09;5070498;28;20461;-42
2023/07/27 11:07:26;;;;;;;9.40;8.60;;;;;;;26.04;62.74;100449.84;5070990;28;20426;-43
2023/07/27 11:09:54;;;;;;;9.60;8.80;;;;;;;26.05;63.76;100447.88;5071255;28;20953;-42
2023/07/27 11:12:21;;;;;;;10.47;9.47;;;;;;;25.84;64.16;100450.25;5071218;28;20479;-44
2023/07/27 11:14:49;;;;;;;10.07;9.07;;;;;;;25.71;65.78;100443.69;5071074;28;20527;-42
2023/07/27 11:17:17;;;;;;;10.30;9.40;;;;;;;25.82;65.11;100442.38;5070471;28;20429;-44
2023/07/27 11:19:46;;;;;;;11.57;10.53;;;;;;;25.79;63.50;100437.50;5068292;28;20438;-47
2023/07/27 11:22:15;;;;;;;10.93;10.23;;;;;;;26.08;62.94;100437.16;5049258;28;20433;-42